sensor_id;sensor_type;location;lat;lon;timestamp;P1;durP1;ratioP1;P2;durP2;ratioP2
23812;SDS011;12087;45.190;5.688;2023-06-22T00:01:23;21.35;;;7.57;;
23812;SDS011;12087;45.190;5.688;2023-06-22T00:06:45;16.67;;;6.40;;
23812;SDS011;12087;45.190;5.688;2023-06-22T00:12:09;20.58;;;6.53;;
23812;SDS011;12087;45.190;5.688;2023-06-22T00:17:31;17.92;;;6.20;;
23812;SDS011;12087;45.190;5.688;2023-06-22T00:22:54;19.50;;;5.93;;
23812;SDS011;12087;45.190;5.688;2023-06-22T00:28:17;19.27;;;5.57;;
23812;SDS011;12087;45.190;5.688;2023-06-22T00:33:39;18.08;;;5.70;;
23812;SDS011;12087;45.190;5.688;2023-06-22T00:39:02;19.63;;;6.93;;
23812;SDS011;12087;45.190;5.688;2023-06-22T00:44:27;10.10;;;5.20;;
23812;SDS011;12087;45.190;5.688;2023-06-22T00:49:49;17.33;;;7.38;;
23812;SDS011;12087;45.190;5.688;2023-06-22T00:55:12;20.15;;;5.72;;
23812;SDS011;12087;45.190;5.688;2023-06-22T01:00:39;16.45;;;5.85;;
23812;SDS011;12087;45.190;5.688;2023-06-22T01:06:06;21.90;;;6.22;;
23812;SDS011;12087;45.190;5.688;2023-06-22T01:11:32;16.63;;;5.40;;
23812;SDS011;12087;45.190;5.688;2023-06-22T01:17:00;14.48;;;5.75;;
23812;SDS011;12087;45.190;5.688;2023-06-22T01:22:24;14.52;;;6.50;;
23812;SDS011;12087;45.190;5.688;2023-06-22T01:27:53;17.52;;;6.47;;
23812;SDS011;12087;45.190;5.688;2023-06-22T01:33:23;14.18;;;5.90;;
23812;SDS011;12087;45.190;5.688;2023-06-22T01:38:46;11.10;;;5.43;;
23812;SDS011;12087;45.190;5.688;2023-06-22T01:44:09;15.55;;;6.80;;
23812;SDS011;12087;45.190;5.688;2023-06-22T01:49:33;12.55;;;6.00;;
23812;SDS011;12087;45.190;5.688;2023-06-22T01:54:55;18.00;;;5.38;;
23812;SDS011;12087;45.190;5.688;2023-06-22T02:00:18;18.70;;;5.90;;
23812;SDS011;12087;45.190;5.688;2023-06-22T02:05:46;12.80;;;5.93;;
23812;SDS011;12087;45.190;5.688;2023-06-22T02:11:11;11.02;;;5.28;;
23812;SDS011;12087;45.190;5.688;2023-06-22T02:16:36;19.15;;;5.68;;
23812;SDS011;12087;45.190;5.688;2023-06-22T02:22:00;23.20;;;6.18;;
23812;SDS011;12087;45.190;5.688;2023-06-22T02:27:22;14.73;;;5.57;;
23812;SDS011;12087;45.190;5.688;2023-06-22T02:32:45;20.27;;;6.15;;
23812;SDS011;12087;45.190;5.688;2023-06-22T02:38:08;17.42;;;6.10;;
23812;SDS011;12087;45.190;5.688;2023-06-22T02:43:30;13.63;;;5.47;;
23812;SDS011;12087;45.190;5.688;2023-06-22T02:48:53;17.90;;;6.10;;
23812;SDS011;12087;45.190;5.688;2023-06-22T02:54:16;17.35;;;5.50;;
23812;SDS011;12087;45.190;5.688;2023-06-22T02:59:39;12.90;;;5.30;;
23812;SDS011;12087;45.190;5.688;2023-06-22T03:05:02;18.20;;;6.05;;
23812;SDS011;12087;45.190;5.688;2023-06-22T03:10:26;16.33;;;6.30;;
23812;SDS011;12087;45.190;5.688;2023-06-22T03:15:48;14.65;;;5.88;;
23812;SDS011;12087;45.190;5.688;2023-06-22T03:21:10;18.55;;;7.43;;
23812;SDS011;12087;45.190;5.688;2023-06-22T03:26:34;16.10;;;6.50;;
23812;SDS011;12087;45.190;5.688;2023-06-22T03:31:56;18.13;;;6.55;;
23812;SDS011;12087;45.190;5.688;2023-06-22T03:37:18;17.67;;;6.50;;
23812;SDS011;12087;45.190;5.688;2023-06-22T03:42:42;22.45;;;7.15;;
23812;SDS011;12087;45.190;5.688;2023-06-22T03:48:04;24.30;;;7.22;;
23812;SDS011;12087;45.190;5.688;2023-06-22T03:53:26;20.08;;;6.53;;
23812;SDS011;12087;45.190;5.688;2023-06-22T03:58:50;22.15;;;6.53;;
23812;SDS011;12087;45.190;5.688;2023-06-22T04:04:12;15.73;;;6.47;;
23812;SDS011;12087;45.190;5.688;2023-06-22T04:09:35;17.90;;;6.78;;
23812;SDS011;12087;45.190;5.688;2023-06-22T04:14:58;15.93;;;5.68;;
23812;SDS011;12087;45.190;5.688;2023-06-22T04:20:20;18.60;;;6.25;;
23812;SDS011;12087;45.190;5.688;2023-06-22T04:25:45;15.68;;;6.75;;
23812;SDS011;12087;45.190;5.688;2023-06-22T04:31:09;15.38;;;5.30;;
23812;SDS011;12087;45.190;5.688;2023-06-22T04:36:35;19.05;;;6.35;;
23812;SDS011;12087;45.190;5.688;2023-06-22T04:41:58;15.63;;;6.70;;
23812;SDS011;12087;45.190;5.688;2023-06-22T04:47:22;23.92;;;6.60;;
23812;SDS011;12087;45.190;5.688;2023-06-22T04:52:44;13.98;;;6.53;;
23812;SDS011;12087;45.190;5.688;2023-06-22T04:58:07;18.13;;;7.25;;
23812;SDS011;12087;45.190;5.688;2023-06-22T05:03:30;19.50;;;6.72;;
23812;SDS011;12087;45.190;5.688;2023-06-22T05:08:53;19.17;;;6.65;;
23812;SDS011;12087;45.190;5.688;2023-06-22T05:14:17;15.93;;;5.95;;
23812;SDS011;12087;45.190;5.688;2023-06-22T05:19:42;19.38;;;7.20;;
23812;SDS011;12087;45.190;5.688;2023-06-22T05:25:05;19.08;;;6.10;;
23812;SDS011;12087;45.190;5.688;2023-06-22T05:30:30;14.63;;;6.40;;
23812;SDS011;12087;45.190;5.688;2023-06-22T05:35:54;14.43;;;5.65;;
23812;SDS011;12087;45.190;5.688;2023-06-22T05:41:16;16.48;;;6.47;;
23812;SDS011;12087;45.190;5.688;2023-06-22T05:46:40;16.05;;;6.63;;
23812;SDS011;12087;45.190;5.688;2023-06-22T05:52:07;16.63;;;6.15;;
23812;SDS011;12087;45.190;5.688;2023-06-22T05:57:30;22.30;;;7.38;;
23812;SDS011;12087;45.190;5.688;2023-06-22T06:02:52;15.55;;;6.65;;
23812;SDS011;12087;45.190;5.688;2023-06-22T06:08:16;18.75;;;6.70;;
23812;SDS011;12087;45.190;5.688;2023-06-22T06:13:38;27.02;;;7.68;;
23812;SDS011;12087;45.190;5.688;2023-06-22T06:19:00;20.30;;;6.85;;
23812;SDS011;12087;45.190;5.688;2023-06-22T06:24:24;21.55;;;7.15;;
23812;SDS011;12087;45.190;5.688;2023-06-22T06:29:46;26.02;;;7.30;;
23812;SDS011;12087;45.190;5.688;2023-06-22T06:35:09;22.73;;;7.22;;
23812;SDS011;12087;45.190;5.688;2023-06-22T06:40:33;24.95;;;8.10;;
23812;SDS011;12087;45.190;5.688;2023-06-22T06:45:55;21.92;;;6.88;;
23812;SDS011;12087;45.190;5.688;2023-06-22T06:51:17;19.92;;;7.75;;
23812;SDS011;12087;45.190;5.688;2023-06-22T06:56:41;17.38;;;7.20;;
23812;SDS011;12087;45.190;5.688;2023-06-22T07:02:05;33.33;;;7.85;;
23812;SDS011;12087;45.190;5.688;2023-06-22T07:07:27;21.05;;;7.18;;
23812;SDS011;12087;45.190;5.688;2023-06-22T07:12:50;24.27;;;7.28;;
23812;SDS011;12087;45.190;5.688;2023-06-22T07:18:13;30.40;;;7.22;;
23812;SDS011;12087;45.190;5.688;2023-06-22T07:23:35;19.48;;;6.90;;
23812;SDS011;12087;45.190;5.688;2023-06-22T07:28:58;17.17;;;7.00;;
23812;SDS011;12087;45.190;5.688;2023-06-22T07:34:21;18.88;;;7.20;;
23812;SDS011;12087;45.190;5.688;2023-06-22T07:39:43;20.02;;;6.50;;
23812;SDS011;12087;45.190;5.688;2023-06-22T07:45:07;16.85;;;5.68;;
23812;SDS011;12087;45.190;5.688;2023-06-22T07:50:30;16.67;;;4.65;;
23812;SDS011;12087;45.190;5.688;2023-06-22T07:55:52;12.40;;;3.70;;
23812;SDS011;12087;45.190;5.688;2023-06-22T08:01:15;16.65;;;4.05;;
23812;SDS011;12087;45.190;5.688;2023-06-22T08:06:41;21.02;;;3.90;;
23812;SDS011;12087;45.190;5.688;2023-06-22T08:12:04;15.20;;;3.33;;
23812;SDS011;12087;45.190;5.688;2023-06-22T08:17:28;22.77;;;4.30;;
23812;SDS011;12087;45.190;5.688;2023-06-22T08:22:51;11.43;;;3.65;;
23812;SDS011;12087;45.190;5.688;2023-06-22T08:28:14;18.73;;;3.17;;
23812;SDS011;12087;45.190;5.688;2023-06-22T08:33:38;11.23;;;2.92;;
23812;SDS011;12087;45.190;5.688;2023-06-22T08:39:00;21.30;;;4.05;;
23812;SDS011;12087;45.190;5.688;2023-06-22T08:44:23;15.00;;;3.13;;
23812;SDS011;12087;45.190;5.688;2023-06-22T08:49:47;17.13;;;4.10;;
23812;SDS011;12087;45.190;5.688;2023-06-22T08:55:09;16.15;;;4.32;;
23812;SDS011;12087;45.190;5.688;2023-06-22T09:00:31;16.95;;;4.43;;
23812;SDS011;12087;45.190;5.688;2023-06-22T09:05:56;13.05;;;4.53;;
23812;SDS011;12087;45.190;5.688;2023-06-22T09:11:18;23.02;;;4.95;;
23812;SDS011;12087;45.190;5.688;2023-06-22T09:16:41;20.15;;;4.85;;
23812;SDS011;12087;45.190;5.688;2023-06-22T09:22:05;13.55;;;4.03;;
23812;SDS011;12087;45.190;5.688;2023-06-22T09:27:27;19.55;;;3.80;;
23812;SDS011;12087;45.190;5.688;2023-06-22T09:32:49;28.23;;;5.07;;
23812;SDS011;12087;45.190;5.688;2023-06-22T09:38:13;18.60;;;5.28;;
23812;SDS011;12087;45.190;5.688;2023-06-22T09:43:36;15.68;;;4.70;;
23812;SDS011;12087;45.190;5.688;2023-06-22T09:48:58;28.33;;;4.68;;
23812;SDS011;12087;45.190;5.688;2023-06-22T09:54:22;16.15;;;4.80;;
23812;SDS011;12087;45.190;5.688;2023-06-22T09:59:45;11.45;;;4.07;;
23812;SDS011;12087;45.190;5.688;2023-06-22T10:05:07;11.20;;;3.70;;
23812;SDS011;12087;45.190;5.688;2023-06-22T10:10:31;17.02;;;5.05;;
23812;SDS011;12087;45.190;5.688;2023-06-22T10:15:53;15.38;;;4.20;;
23812;SDS011;12087;45.190;5.688;2023-06-22T10:21:15;11.75;;;4.00;;
23812;SDS011;12087;45.190;5.688;2023-06-22T10:26:39;12.30;;;4.15;;
23812;SDS011;12087;45.190;5.688;2023-06-22T10:32:01;15.07;;;4.07;;
23812;SDS011;12087;45.190;5.688;2023-06-22T10:37:24;15.52;;;4.35;;
23812;SDS011;12087;45.190;5.688;2023-06-22T10:42:47;14.45;;;4.00;;
23812;SDS011;12087;45.190;5.688;2023-06-22T10:48:10;15.05;;;4.55;;
23812;SDS011;12087;45.190;5.688;2023-06-22T10:53:32;18.90;;;4.75;;
23812;SDS011;12087;45.190;5.688;2023-06-22T10:58:56;15.38;;;3.78;;
23812;SDS011;12087;45.190;5.688;2023-06-22T11:04:18;10.85;;;3.70;;
23812;SDS011;12087;45.190;5.688;2023-06-22T11:09:40;17.52;;;3.67;;
23812;SDS011;12087;45.190;5.688;2023-06-22T11:15:06;17.98;;;4.10;;
23812;SDS011;12087;45.190;5.688;2023-06-22T11:20:29;10.88;;;3.67;;
23812;SDS011;12087;45.190;5.688;2023-06-22T11:25:51;20.08;;;5.07;;
23812;SDS011;12087;45.190;5.688;2023-06-22T11:31:15;15.38;;;3.78;;
23812;SDS011;12087;45.190;5.688;2023-06-22T11:36:37;13.60;;;4.70;;
23812;SDS011;12087;45.190;5.688;2023-06-22T11:41:59;19.27;;;4.47;;
23812;SDS011;12087;45.190;5.688;2023-06-22T11:47:23;12.13;;;4.18;;
23812;SDS011;12087;45.190;5.688;2023-06-22T11:52:45;17.13;;;5.00;;
23812;SDS011;12087;45.190;5.688;2023-06-22T11:58:07;14.32;;;5.00;;
23812;SDS011;12087;45.190;5.688;2023-06-22T12:03:31;10.77;;;4.88;;
23812;SDS011;12087;45.190;5.688;2023-06-22T12:08:53;15.82;;;4.03;;
23812;SDS011;12087;45.190;5.688;2023-06-22T12:14:15;13.88;;;4.13;;
23812;SDS011;12087;45.190;5.688;2023-06-22T12:19:39;15.80;;;4.10;;
23812;SDS011;12087;45.190;5.688;2023-06-22T12:25:01;17.52;;;4.43;;
23812;SDS011;12087;45.190;5.688;2023-06-22T12:30:23;8.85;;;3.65;;
23812;SDS011;12087;45.190;5.688;2023-06-22T12:35:47;18.33;;;4.93;;
23812;SDS011;12087;45.190;5.688;2023-06-22T12:41:10;17.13;;;4.32;;
23812;SDS011;12087;45.190;5.688;2023-06-22T12:46:32;16.00;;;4.28;;
23812;SDS011;12087;45.190;5.688;2023-06-22T12:51:59;17.75;;;3.78;;
23812;SDS011;12087;45.190;5.688;2023-06-22T12:57:21;14.90;;;4.32;;
23812;SDS011;12087;45.190;5.688;2023-06-22T13:02:43;19.70;;;4.65;;
23812;SDS011;12087;45.190;5.688;2023-06-22T13:08:07;13.60;;;4.28;;
23812;SDS011;12087;45.190;5.688;2023-06-22T13:13:29;17.30;;;4.75;;
23812;SDS011;12087;45.190;5.688;2023-06-22T13:18:51;12.13;;;4.63;;
23812;SDS011;12087;45.190;5.688;2023-06-22T13:24:15;17.52;;;4.97;;
23812;SDS011;12087;45.190;5.688;2023-06-22T13:29:37;15.25;;;5.00;;
23812;SDS011;12087;45.190;5.688;2023-06-22T13:34:59;15.57;;;4.40;;
23812;SDS011;12087;45.190;5.688;2023-06-22T13:40:26;19.35;;;5.55;;
23812;SDS011;12087;45.190;5.688;2023-06-22T13:45:50;24.85;;;5.35;;
23812;SDS011;12087;45.190;5.688;2023-06-22T13:51:12;8.73;;;2.90;;
23812;SDS011;12087;45.190;5.688;2023-06-22T13:56:37;13.70;;;1.88;;
23812;SDS011;12087;45.190;5.688;2023-06-22T14:02:01;8.13;;;1.77;;
23812;SDS011;12087;45.190;5.688;2023-06-22T14:07:23;17.55;;;2.58;;
23812;SDS011;12087;45.190;5.688;2023-06-22T14:12:49;16.58;;;3.10;;
23812;SDS011;12087;45.190;5.688;2023-06-22T14:18:13;10.93;;;2.03;;
23812;SDS011;12087;45.190;5.688;2023-06-22T14:23:38;9.00;;;1.33;;
23812;SDS011;12087;45.190;5.688;2023-06-22T14:29:02;7.95;;;2.42;;
23812;SDS011;12087;45.190;5.688;2023-06-22T14:34:24;5.57;;;1.75;;
23812;SDS011;12087;45.190;5.688;2023-06-22T14:39:48;4.15;;;1.73;;
23812;SDS011;12087;45.190;5.688;2023-06-22T14:45:13;5.85;;;2.20;;
23812;SDS011;12087;45.190;5.688;2023-06-22T14:50:36;3.92;;;1.80;;
23812;SDS011;12087;45.190;5.688;2023-06-22T14:55:59;11.77;;;2.90;;
23812;SDS011;12087;45.190;5.688;2023-06-22T15:01:23;5.80;;;2.28;;
23812;SDS011;12087;45.190;5.688;2023-06-22T15:06:45;6.30;;;2.10;;
23812;SDS011;12087;45.190;5.688;2023-06-22T15:12:09;6.93;;;2.35;;
23812;SDS011;12087;45.190;5.688;2023-06-22T15:17:35;5.20;;;2.45;;
23812;SDS011;12087;45.190;5.688;2023-06-22T15:22:57;4.78;;;1.80;;
23812;SDS011;12087;45.190;5.688;2023-06-22T15:28:19;2.83;;;1.70;;
23812;SDS011;12087;45.190;5.688;2023-06-22T15:33:43;4.15;;;1.90;;
23812;SDS011;12087;45.190;5.688;2023-06-22T15:39:07;6.22;;;2.10;;
23812;SDS011;12087;45.190;5.688;2023-06-22T15:44:29;5.15;;;1.85;;
23812;SDS011;12087;45.190;5.688;2023-06-22T15:49:52;2.83;;;1.75;;
23812;SDS011;12087;45.190;5.688;2023-06-22T15:55:16;3.45;;;1.90;;
23812;SDS011;12087;45.190;5.688;2023-06-22T16:00:39;5.22;;;2.30;;
23812;SDS011;12087;45.190;5.688;2023-06-22T16:06:03;3.13;;;2.17;;
23812;SDS011;12087;45.190;5.688;2023-06-22T16:11:25;6.18;;;2.10;;
23812;SDS011;12087;45.190;5.688;2023-06-22T16:16:48;5.05;;;2.20;;
23812;SDS011;12087;45.190;5.688;2023-06-22T16:22:11;3.92;;;2.20;;
23812;SDS011;12087;45.190;5.688;2023-06-22T16:27:34;5.35;;;2.58;;
23812;SDS011;12087;45.190;5.688;2023-06-22T16:32:57;3.72;;;1.70;;
23812;SDS011;12087;45.190;5.688;2023-06-22T16:38:21;2.97;;;1.83;;
23812;SDS011;12087;45.190;5.688;2023-06-22T16:43:43;5.40;;;1.75;;
23812;SDS011;12087;45.190;5.688;2023-06-22T16:49:05;3.92;;;2.08;;
23812;SDS011;12087;45.190;5.688;2023-06-22T16:54:29;4.65;;;2.25;;
23812;SDS011;12087;45.190;5.688;2023-06-22T16:59:52;3.13;;;1.92;;
23812;SDS011;12087;45.190;5.688;2023-06-22T17:05:14;6.80;;;2.55;;
23812;SDS011;12087;45.190;5.688;2023-06-22T17:10:40;6.88;;;1.90;;
23812;SDS011;12087;45.190;5.688;2023-06-22T17:16:03;6.25;;;2.95;;
23812;SDS011;12087;45.190;5.688;2023-06-22T17:21:26;5.25;;;2.55;;
23812;SDS011;12087;45.190;5.688;2023-06-22T17:26:52;4.93;;;2.22;;
23812;SDS011;12087;45.190;5.688;2023-06-22T17:32:15;3.70;;;1.85;;
23812;SDS011;12087;45.190;5.688;2023-06-22T17:37:48;4.13;;;2.30;;
23812;SDS011;12087;45.190;5.688;2023-06-22T17:43:13;3.33;;;2.10;;
23812;SDS011;12087;45.190;5.688;2023-06-22T17:48:42;3.72;;;2.15;;
23812;SDS011;12087;45.190;5.688;2023-06-22T17:54:05;4.40;;;2.30;;
23812;SDS011;12087;45.190;5.688;2023-06-22T17:59:29;7.07;;;2.38;;
23812;SDS011;12087;45.190;5.688;2023-06-22T18:04:56;5.68;;;2.20;;
23812;SDS011;12087;45.190;5.688;2023-06-22T18:10:19;5.68;;;2.45;;
23812;SDS011;12087;45.190;5.688;2023-06-22T18:15:42;6.00;;;2.50;;
23812;SDS011;12087;45.190;5.688;2023-06-22T18:21:06;4.80;;;2.72;;
23812;SDS011;12087;45.190;5.688;2023-06-22T18:26:28;4.65;;;3.42;;
23812;SDS011;12087;45.190;5.688;2023-06-22T18:31:52;6.45;;;3.13;;
23812;SDS011;12087;45.190;5.688;2023-06-22T18:37:14;4.75;;;2.55;;
23812;SDS011;12087;45.190;5.688;2023-06-22T18:42:43;4.95;;;2.92;;
23812;SDS011;12087;45.190;5.688;2023-06-22T18:48:07;7.43;;;3.33;;
23812;SDS011;12087;45.190;5.688;2023-06-22T18:53:29;6.32;;;2.60;;
23812;SDS011;12087;45.190;5.688;2023-06-22T18:58:55;5.30;;;2.40;;
23812;SDS011;12087;45.190;5.688;2023-06-22T19:04:19;3.75;;;2.38;;
23812;SDS011;12087;45.190;5.688;2023-06-22T19:09:42;5.38;;;2.90;;
23812;SDS011;12087;45.190;5.688;2023-06-22T19:15:41;3.85;;;2.50;;
23812;SDS011;12087;45.190;5.688;2023-06-22T19:21:07;2.95;;;2.10;;
23812;SDS011;12087;45.190;5.688;2023-06-22T19:26:31;5.15;;;2.38;;
23812;SDS011;12087;45.190;5.688;2023-06-22T19:31:53;3.55;;;2.20;;
23812;SDS011;12087;45.190;5.688;2023-06-22T19:37:18;3.97;;;2.00;;
23812;SDS011;12087;45.190;5.688;2023-06-22T19:42:41;5.72;;;2.45;;
23812;SDS011;12087;45.190;5.688;2023-06-22T19:48:04;4.30;;;1.92;;
23812;SDS011;12087;45.190;5.688;2023-06-22T19:53:30;2.97;;;1.95;;
23812;SDS011;12087;45.190;5.688;2023-06-22T19:58:53;8.10;;;2.28;;
23812;SDS011;12087;45.190;5.688;2023-06-22T20:04:15;8.57;;;2.40;;
23812;SDS011;12087;45.190;5.688;2023-06-22T20:09:39;4.30;;;2.15;;
23812;SDS011;12087;45.190;5.688;2023-06-22T20:15:21;10.77;;;5.88;;
23812;SDS011;12087;45.190;5.688;2023-06-22T20:20:47;6.55;;;2.70;;
23812;SDS011;12087;45.190;5.688;2023-06-22T20:26:11;3.40;;;1.95;;
23812;SDS011;12087;45.190;5.688;2023-06-22T20:31:37;10.88;;;2.90;;
23812;SDS011;12087;45.190;5.688;2023-06-22T20:37:00;4.00;;;2.42;;
23812;SDS011;12087;45.190;5.688;2023-06-22T20:42:24;5.50;;;2.20;;
23812;SDS011;12087;45.190;5.688;2023-06-22T20:47:46;7.45;;;2.47;;
23812;SDS011;12087;45.190;5.688;2023-06-22T20:53:08;6.75;;;2.47;;
23812;SDS011;12087;45.190;5.688;2023-06-22T20:58:32;6.68;;;3.20;;
23812;SDS011;12087;45.190;5.688;2023-06-22T21:03:54;5.32;;;2.65;;
23812;SDS011;12087;45.190;5.688;2023-06-22T21:09:17;6.63;;;3.75;;
23812;SDS011;12087;45.190;5.688;2023-06-22T21:14:43;7.53;;;3.13;;
23812;SDS011;12087;45.190;5.688;2023-06-22T21:20:07;8.77;;;3.45;;
23812;SDS011;12087;45.190;5.688;2023-06-22T21:25:29;8.15;;;3.33;;
23812;SDS011;12087;45.190;5.688;2023-06-22T21:30:53;7.05;;;3.90;;
23812;SDS011;12087;45.190;5.688;2023-06-22T21:36:15;6.30;;;3.30;;
23812;SDS011;12087;45.190;5.688;2023-06-22T21:41:38;10.88;;;3.67;;
23812;SDS011;12087;45.190;5.688;2023-06-22T21:47:01;10.50;;;3.58;;
23812;SDS011;12087;45.190;5.688;2023-06-22T21:52:24;8.43;;;3.72;;
23812;SDS011;12087;45.190;5.688;2023-06-22T21:57:49;8.98;;;3.88;;
23812;SDS011;12087;45.190;5.688;2023-06-22T22:03:13;8.68;;;4.32;;
23812;SDS011;12087;45.190;5.688;2023-06-22T22:08:35;8.90;;;4.38;;
23812;SDS011;12087;45.190;5.688;2023-06-22T22:13:57;10.27;;;4.38;;
23812;SDS011;12087;45.190;5.688;2023-06-22T22:19:21;6.00;;;3.67;;
23812;SDS011;12087;45.190;5.688;2023-06-22T22:24:43;6.40;;;3.72;;
23812;SDS011;12087;45.190;5.688;2023-06-22T22:30:06;6.22;;;3.63;;
23812;SDS011;12087;45.190;5.688;2023-06-22T22:35:30;6.50;;;3.63;;
23812;SDS011;12087;45.190;5.688;2023-06-22T22:40:53;6.30;;;3.85;;
23812;SDS011;12087;45.190;5.688;2023-06-22T22:46:15;3.85;;;2.95;;
23812;SDS011;12087;45.190;5.688;2023-06-22T22:51:38;5.07;;;3.28;;
23812;SDS011;12087;45.190;5.688;2023-06-22T22:57:01;5.50;;;3.25;;
23812;SDS011;12087;45.190;5.688;2023-06-22T23:02:24;8.52;;;3.08;;
23812;SDS011;12087;45.190;5.688;2023-06-22T23:07:47;8.05;;;4.00;;
23812;SDS011;12087;45.190;5.688;2023-06-22T23:13:10;7.55;;;3.47;;
23812;SDS011;12087;45.190;5.688;2023-06-22T23:18:32;7.07;;;3.80;;
23812;SDS011;12087;45.190;5.688;2023-06-22T23:23:55;6.63;;;2.67;;
23812;SDS011;12087;45.190;5.688;2023-06-22T23:29:18;4.97;;;2.67;;
23812;SDS011;12087;45.190;5.688;2023-06-22T23:34:40;5.45;;;2.30;;
23812;SDS011;12087;45.190;5.688;2023-06-22T23:40:06;6.43;;;1.90;;
23812;SDS011;12087;45.190;5.688;2023-06-22T23:45:36;3.63;;;2.03;;
23812;SDS011;12087;45.190;5.688;2023-06-22T23:50:58;2.83;;;1.70;;
23812;SDS011;12087;45.190;5.688;2023-06-22T23:56:22;3.55;;;1.77;;
